sensor_id;sensor_type;location;lat;lon;timestamp;pressure;altitude;pressure_sealevel;temperature;humidity
46534;BME280;32260;52.008;4.752;2023-03-22T00:00:09;100978.34;;;10.93;68.88
46534;BME280;32260;52.008;4.752;2023-03-22T00:02:40;100978.34;;;10.93;69.25
46534;BME280;32260;52.008;4.752;2023-03-22T00:05:06;100972.31;;;10.85;69.44
46534;BME280;32260;52.008;4.752;2023-03-22T00:07:33;100968.81;;;10.84;69.31
46534;BME280;32260;52.008;4.752;2023-03-22T00:09:59;100968.88;;;10.80;69.41
46534;BME280;32260;52.008;4.752;2023-03-22T00:12:25;100967.13;;;10.80;69.42
46534;BME280;32260;52.008;4.752;2023-03-22T00:14:51;100973.50;;;10.68;69.82
46534;BME280;32260;52.008;4.752;2023-03-22T00:17:18;100971.66;;;10.74;69.89
46534;BME280;32260;52.008;4.752;2023-03-22T00:19:44;100968.97;;;10.75;69.60
46534;BME280;32260;52.008;4.752;2023-03-22T00:22:11;100966.31;;;10.77;69.63
46534;BME280;32260;52.008;4.752;2023-03-22T00:24:39;100962.81;;;10.75;69.53
46534;BME280;32260;52.008;4.752;2023-03-22T00:27:05;100954.84;;;10.75;69.47
46534;BME280;32260;52.008;4.752;2023-03-22T00:29:31;100944.31;;;10.72;69.75
46534;BME280;32260;52.008;4.752;2023-03-22T00:31:57;100942.66;;;10.66;69.58
46534;BME280;32260;52.008;4.752;2023-03-22T00:34:24;100931.13;;;10.68;69.77
46534;BME280;32260;52.008;4.752;2023-03-22T00:36:52;100932.94;;;10.65;69.86
46534;BME280;32260;52.008;4.752;2023-03-22T00:39:21;100922.25;;;10.70;69.78
46534;BME280;32260;52.008;4.752;2023-03-22T00:41:47;100919.59;;;10.71;69.95
46534;BME280;32260;52.008;4.752;2023-03-22T00:44:13;100920.47;;;10.72;69.79
46534;BME280;32260;52.008;4.752;2023-03-22T00:46:39;100919.53;;;10.73;69.64
46534;BME280;32260;52.008;4.752;2023-03-22T00:49:05;100915.03;;;10.78;69.83
46534;BME280;32260;52.008;4.752;2023-03-22T00:51:31;100912.47;;;10.73;69.86
46534;BME280;32260;52.008;4.752;2023-03-22T00:53:59;100906.22;;;10.77;69.61
46534;BME280;32260;52.008;4.752;2023-03-22T00:56:26;100901.78;;;10.78;69.89
46534;BME280;32260;52.008;4.752;2023-03-22T00:58:53;100898.22;;;10.80;69.80
46534;BME280;32260;52.008;4.752;2023-03-22T01:01:20;100886.72;;;10.80;69.69
46534;BME280;32260;52.008;4.752;2023-03-22T01:03:46;100879.53;;;10.85;69.84
46534;BME280;32260;52.008;4.752;2023-03-22T01:06:16;100878.66;;;10.86;69.38
46534;BME280;32260;52.008;4.752;2023-03-22T01:08:42;100877.78;;;10.84;69.43
46534;BME280;32260;52.008;4.752;2023-03-22T01:11:08;100875.94;;;10.89;69.26
46534;BME280;32260;52.008;4.752;2023-03-22T01:13:35;100869.84;;;10.86;69.65
46534;BME280;32260;52.008;4.752;2023-03-22T01:16:04;100859.22;;;10.86;69.25
46534;BME280;32260;52.008;4.752;2023-03-22T01:18:30;100855.59;;;10.90;69.25
46534;BME280;32260;52.008;4.752;2023-03-22T01:20:57;100856.47;;;10.90;69.04
46534;BME280;32260;52.008;4.752;2023-03-22T01:23:23;100851.09;;;10.93;69.25
46534;BME280;32260;52.008;4.752;2023-03-22T01:25:49;100848.50;;;10.90;69.19
46534;BME280;32260;52.008;4.752;2023-03-22T01:28:15;100844.00;;;10.95;69.20
46534;BME280;32260;52.008;4.752;2023-03-22T01:30:42;100838.75;;;10.92;69.03
46534;BME280;32260;52.008;4.752;2023-03-22T01:33:08;100828.16;;;10.92;68.95
46534;BME280;32260;52.008;4.752;2023-03-22T01:35:35;100818.41;;;10.94;69.32
46534;BME280;32260;52.008;4.752;2023-03-22T01:38:02;100816.69;;;10.90;68.93
46534;BME280;32260;52.008;4.752;2023-03-22T01:40:28;100819.31;;;10.93;69.04
46534;BME280;32260;52.008;4.752;2023-03-22T01:42:55;100815.78;;;10.91;68.71
46534;BME280;32260;52.008;4.752;2023-03-22T01:48:07;100812.19;;;10.95;68.91
46534;BME280;32260;52.008;4.752;2023-03-22T01:50:36;100805.97;;;10.96;68.77
46534;BME280;32260;52.008;4.752;2023-03-22T01:53:04;100798.00;;;10.96;68.70
46534;BME280;32260;52.008;4.752;2023-03-22T01:55:33;100793.72;;;10.91;68.81
46534;BME280;32260;52.008;4.752;2023-03-22T01:58:00;100790.13;;;10.93;69.12
46534;BME280;32260;52.008;4.752;2023-03-22T02:00:27;100792.78;;;10.93;68.95
46534;BME280;32260;52.008;4.752;2023-03-22T02:02:54;100785.75;;;10.92;68.86
46534;BME280;32260;52.008;4.752;2023-03-22T02:05:20;100785.81;;;10.89;69.11
46534;BME280;32260;52.008;4.752;2023-03-22T02:07:48;100779.63;;;10.89;69.27
46534;BME280;32260;52.008;4.752;2023-03-22T02:10:19;100774.25;;;10.93;69.46
46534;BME280;32260;52.008;4.752;2023-03-22T02:35:32;100753.41;;;11.14;70.67
46534;BME280;32260;52.008;4.752;2023-03-22T02:48:56;100742.81;;;11.14;71.17
46534;BME280;32260;52.008;4.752;2023-03-22T02:51:34;100732.28;;;11.11;71.31
46534;BME280;32260;52.008;4.752;2023-03-22T02:54:06;100746.69;;;11.00;72.08
46534;BME280;32260;52.008;4.752;2023-03-22T02:56:41;100736.66;;;11.13;71.14
46534;BME280;32260;52.008;4.752;2023-03-22T02:59:10;100731.44;;;11.10;71.61
46534;BME280;32260;52.008;4.752;2023-03-22T03:01:43;100731.50;;;11.07;71.90
46534;BME280;32260;52.008;4.752;2023-03-22T03:04:16;100727.19;;;11.03;72.66
46534;BME280;32260;52.008;4.752;2023-03-22T03:06:43;100722.34;;;11.21;71.88
46534;BME280;32260;52.008;4.752;2023-03-22T03:09:14;100733.16;;;11.11;72.65
46534;BME280;32260;52.008;4.752;2023-03-22T03:11:44;100731.28;;;11.15;72.45
46534;BME280;32260;52.008;4.752;2023-03-22T03:14:31;100721.38;;;11.23;72.11
46534;BME280;32260;52.008;4.752;2023-03-22T03:17:10;100725.66;;;11.29;72.15
46534;BME280;32260;52.008;4.752;2023-03-22T03:19:54;100720.25;;;11.33;72.15
46534;BME280;32260;52.008;4.752;2023-03-22T03:22:36;100724.84;;;11.27;72.33
46534;BME280;32260;52.008;4.752;2023-03-22T03:25:14;100707.06;;;11.30;72.03
46534;BME280;32260;52.008;4.752;2023-03-22T03:27:50;100707.88;;;11.34;71.65
46534;BME280;32260;52.008;4.752;2023-03-22T03:30:30;100703.50;;;11.31;71.43
46534;BME280;32260;52.008;4.752;2023-03-22T03:33:01;100703.50;;;11.31;71.29
46534;BME280;32260;52.008;4.752;2023-03-22T03:36:32;100702.72;;;11.28;71.91
46534;BME280;32260;52.008;4.752;2023-03-22T03:38:24;100703.66;;;11.25;72.20
46534;BME280;32260;52.008;4.752;2023-03-22T03:40:57;100702.72;;;11.28;72.26
46534;BME280;32260;52.008;4.752;2023-03-22T03:43:25;100702.78;;;11.25;72.19
46534;BME280;32260;52.008;4.752;2023-03-22T03:45:53;100705.38;;;11.26;71.78
46534;BME280;32260;52.008;4.752;2023-03-22T03:48:23;100708.97;;;11.25;72.21
46534;BME280;32260;52.008;4.752;2023-03-22T03:50:52;100715.22;;;11.23;71.98
46534;BME280;32260;52.008;4.752;2023-03-22T03:53:20;100716.00;;;11.26;72.10
46534;BME280;32260;52.008;4.752;2023-03-22T03:55:46;100702.72;;;11.26;72.05
46534;BME280;32260;52.008;4.752;2023-03-22T03:58:12;100708.97;;;11.25;72.09
46534;BME280;32260;52.008;4.752;2023-03-22T04:00:38;100700.06;;;11.26;72.31
46534;BME280;32260;52.008;4.752;2023-03-22T04:03:05;100704.53;;;11.26;72.68
46534;BME280;32260;52.008;4.752;2023-03-22T04:05:32;100699.13;;;11.29;72.48
46534;BME280;32260;52.008;4.752;2023-03-22T04:07:58;100699.03;;;11.33;72.40
46534;BME280;32260;52.008;4.752;2023-03-22T04:10:24;100701.50;;;11.40;71.94
46534;BME280;32260;52.008;4.752;2023-03-22T04:12:50;100690.84;;;11.41;72.18
46534;BME280;32260;52.008;4.752;2023-03-22T04:15:16;100691.59;;;11.48;71.76
46534;BME280;32260;52.008;4.752;2023-03-22T04:17:43;100701.59;;;11.37;71.71
46534;BME280;32260;52.008;4.752;2023-03-22T04:20:10;100688.13;;;11.44;71.27
46534;BME280;32260;52.008;4.752;2023-03-22T04:22:38;100698.75;;;11.44;71.45
46534;BME280;32260;52.008;4.752;2023-03-22T04:25:06;100692.34;;;11.53;71.30
46534;BME280;32260;52.008;4.752;2023-03-22T04:27:37;100688.94;;;11.48;71.68
46534;BME280;32260;52.008;4.752;2023-03-22T04:30:05;100684.41;;;11.52;71.42
46534;BME280;32260;52.008;4.752;2023-03-22T04:32:32;100679.97;;;11.52;71.17
46534;BME280;32260;52.008;4.752;2023-03-22T04:34:58;100683.47;;;11.54;71.19
46534;BME280;32260;52.008;4.752;2023-03-22T04:37:24;100675.56;;;11.51;71.27
46534;BME280;32260;52.008;4.752;2023-03-22T04:39:52;100666.66;;;11.54;70.81
46534;BME280;32260;52.008;4.752;2023-03-22T04:42:18;100671.28;;;11.47;71.08
46534;BME280;32260;52.008;4.752;2023-03-22T04:44:45;100671.34;;;11.44;70.80
46534;BME280;32260;52.008;4.752;2023-03-22T04:47:11;100673.81;;;11.50;70.84
46534;BME280;32260;52.008;4.752;2023-03-22T04:49:37;100665.16;;;11.43;71.23
46534;BME280;32260;52.008;4.752;2023-03-22T04:52:03;100658.97;;;11.44;70.59
46534;BME280;32260;52.008;4.752;2023-03-22T04:54:30;100663.31;;;11.47;70.60
46534;BME280;32260;52.008;4.752;2023-03-22T04:56:56;100661.44;;;11.51;70.53
46534;BME280;32260;52.008;4.752;2023-03-22T04:59:22;100660.59;;;11.48;70.24
46534;BME280;32260;52.008;4.752;2023-03-22T05:01:49;100655.41;;;11.44;70.62
46534;BME280;32260;52.008;4.752;2023-03-22T05:04:17;100669.53;;;11.46;70.31
46534;BME280;32260;52.008;4.752;2023-03-22T05:06:43;100667.88;;;11.42;69.95
46534;BME280;32260;52.008;4.752;2023-03-22T05:09:11;100667.78;;;11.45;70.21
46534;BME280;32260;52.008;4.752;2023-03-22T05:11:37;100667.75;;;11.46;70.22
46534;BME280;32260;52.008;4.752;2023-03-22T05:14:06;100654.34;;;11.51;70.27
46534;BME280;32260;52.008;4.752;2023-03-22T05:16:32;100649.88;;;11.53;70.07
46534;BME280;32260;52.008;4.752;2023-03-22T05:18:59;100656.09;;;11.52;69.95
46534;BME280;32260;52.008;4.752;2023-03-22T05:21:28;100648.97;;;11.54;70.23
46534;BME280;32260;52.008;4.752;2023-03-22T05:24:01;100649.75;;;11.58;69.50
46534;BME280;32260;52.008;4.752;2023-03-22T05:26:27;100649.78;;;11.56;69.69
46534;BME280;32260;52.008;4.752;2023-03-22T05:28:54;100643.50;;;11.60;69.39
46534;BME280;32260;52.008;4.752;2023-03-22T05:31:21;100639.88;;;11.63;69.19
46534;BME280;32260;52.008;4.752;2023-03-22T05:33:49;100638.38;;;11.54;69.22
46534;BME280;32260;52.008;4.752;2023-03-22T05:36:18;100634.53;;;11.64;69.50
46534;BME280;32260;52.008;4.752;2023-03-22T05:38:44;100639.16;;;11.58;68.39
46534;BME280;32260;52.008;4.752;2023-03-22T05:41:12;100633.69;;;11.62;68.88
46534;BME280;32260;52.008;4.752;2023-03-22T05:43:38;100628.22;;;11.69;68.05
46534;BME280;32260;52.008;4.752;2023-03-22T05:46:07;100638.16;;;11.62;68.34
46534;BME280;32260;52.008;4.752;2023-03-22T05:48:35;100631.88;;;11.64;68.34
46534;BME280;32260;52.008;4.752;2023-03-22T05:51:01;100637.28;;;11.61;67.58
46534;BME280;32260;52.008;4.752;2023-03-22T05:53:29;100623.00;;;11.65;68.13
46534;BME280;32260;52.008;4.752;2023-03-22T05:55:56;100622.28;;;11.60;67.80
46534;BME280;32260;52.008;4.752;2023-03-22T05:58:26;100623.78;;;11.69;68.25
46534;BME280;32260;52.008;4.752;2023-03-22T06:00:56;100624.03;;;11.61;67.70
46534;BME280;32260;52.008;4.752;2023-03-22T06:03:26;100619.06;;;11.47;67.61
46534;BME280;32260;52.008;4.752;2023-03-22T06:05:52;100619.50;;;11.63;67.49
46534;BME280;32260;52.008;4.752;2023-03-22T06:08:20;100624.88;;;11.62;67.68
46534;BME280;32260;52.008;4.752;2023-03-22T06:10:49;100622.84;;;11.72;67.57
46534;BME280;32260;52.008;4.752;2023-03-22T06:13:16;100636.00;;;11.75;67.18
46534;BME280;32260;52.008;4.752;2023-03-22T06:15:42;100632.66;;;11.68;66.90
46534;BME280;32260;52.008;4.752;2023-03-22T06:18:09;100632.28;;;11.82;66.58
46534;BME280;32260;52.008;4.752;2023-03-22T06:20:35;100633.91;;;11.86;66.93
46534;BME280;32260;52.008;4.752;2023-03-22T06:23:01;100627.88;;;11.81;66.57
46534;BME280;32260;52.008;4.752;2023-03-22T06:25:27;100631.13;;;11.91;66.81
46534;BME280;32260;52.008;4.752;2023-03-22T06:27:53;100628.44;;;11.92;66.68
46534;BME280;32260;52.008;4.752;2023-03-22T06:30:20;100623.94;;;11.96;66.25
46534;BME280;32260;52.008;4.752;2023-03-22T06:32:46;100622.16;;;11.96;66.48
46534;BME280;32260;52.008;4.752;2023-03-22T06:35:12;100626.59;;;11.94;66.11
46534;BME280;32260;52.008;4.752;2023-03-22T06:37:40;100626.50;;;11.99;66.41
46534;BME280;32260;52.008;4.752;2023-03-22T06:40:07;100630.88;;;12.02;66.39
46534;BME280;32260;52.008;4.752;2023-03-22T06:42:34;100618.50;;;12.01;66.10
46534;BME280;32260;52.008;4.752;2023-03-22T06:45:00;100622.06;;;12.00;65.89
46534;BME280;32260;52.008;4.752;2023-03-22T06:47:27;100630.09;;;11.98;66.31
46534;BME280;32260;52.008;4.752;2023-03-22T06:49:53;100622.84;;;12.03;66.37
46534;BME280;32260;52.008;4.752;2023-03-22T06:52:19;100619.34;;;12.03;66.24
46534;BME280;32260;52.008;4.752;2023-03-22T06:54:45;100616.69;;;12.03;66.08
46534;BME280;32260;52.008;4.752;2023-03-22T06:57:12;100624.47;;;12.09;66.26
46534;BME280;32260;52.008;4.752;2023-03-22T06:59:38;100624.66;;;12.03;65.61
46534;BME280;32260;52.008;4.752;2023-03-22T07:02:04;100616.19;;;12.18;65.64
46534;BME280;32260;52.008;4.752;2023-03-22T07:04:31;100632.88;;;12.23;65.71
46534;BME280;32260;52.008;4.752;2023-03-22T07:06:57;100633.09;;;12.16;65.44
46534;BME280;32260;52.008;4.752;2023-03-22T07:09:24;100627.84;;;12.14;65.22
46534;BME280;32260;52.008;4.752;2023-03-22T07:11:51;100629.34;;;12.23;65.64
46534;BME280;32260;52.008;4.752;2023-03-22T07:14:17;100622.28;;;12.22;66.05
46534;BME280;32260;52.008;4.752;2023-03-22T07:16:43;100618.59;;;12.27;65.58
46534;BME280;32260;52.008;4.752;2023-03-22T07:19:09;100619.31;;;12.33;65.51
46534;BME280;32260;52.008;4.752;2023-03-22T07:21:37;100618.88;;;12.46;65.23
46534;BME280;32260;52.008;4.752;2023-03-22T07:24:03;100623.59;;;12.37;65.15
46534;BME280;32260;52.008;4.752;2023-03-22T07:26:31;100614.63;;;12.41;64.76
46534;BME280;32260;52.008;4.752;2023-03-22T07:28:57;100623.16;;;12.51;64.39
46534;BME280;32260;52.008;4.752;2023-03-22T07:31:23;100620.47;;;12.52;64.54
46534;BME280;32260;52.008;4.752;2023-03-22T07:33:49;100627.44;;;12.56;64.26
46534;BME280;32260;52.008;4.752;2023-03-22T07:36:17;100620.19;;;12.61;64.44
46534;BME280;32260;52.008;4.752;2023-03-22T07:38:49;100611.09;;;12.69;63.72
46534;BME280;32260;52.008;4.752;2023-03-22T07:41:21;100608.84;;;12.83;63.41
46534;BME280;32260;52.008;4.752;2023-03-22T07:43:49;100604.28;;;12.87;63.11
46534;BME280;32260;52.008;4.752;2023-03-22T07:46:15;100611.28;;;12.89;63.37
46534;BME280;32260;52.008;4.752;2023-03-22T07:48:41;100622.31;;;12.78;63.42
46534;BME280;32260;52.008;4.752;2023-03-22T07:51:07;100620.72;;;13.00;62.88
46534;BME280;32260;52.008;4.752;2023-03-22T07:53:34;100621.00;;;12.90;62.84
46534;BME280;32260;52.008;4.752;2023-03-22T07:56:02;100630.72;;;12.91;63.13
46534;BME280;32260;52.008;4.752;2023-03-22T07:58:28;100630.19;;;13.08;63.08
46534;BME280;32260;52.008;4.752;2023-03-22T08:00:57;100628.44;;;13.07;63.29
46534;BME280;32260;52.008;4.752;2023-03-22T08:03:28;100627.59;;;13.05;63.54
46534;BME280;32260;52.008;4.752;2023-03-22T08:05:54;100620.75;;;12.98;63.91
46534;BME280;32260;52.008;4.752;2023-03-22T08:08:23;100611.91;;;12.98;63.91
46534;BME280;32260;52.008;4.752;2023-03-22T08:10:49;100632.63;;;12.88;63.99
46534;BME280;32260;52.008;4.752;2023-03-22T08:13:16;100624.59;;;12.89;64.39
46534;BME280;32260;52.008;4.752;2023-03-22T08:15:42;100613.88;;;12.91;64.37
46534;BME280;32260;52.008;4.752;2023-03-22T08:18:08;100624.66;;;12.88;63.98
46534;BME280;32260;52.008;4.752;2023-03-22T08:20:34;100621.72;;;12.95;63.88
46534;BME280;32260;52.008;4.752;2023-03-22T08:23:02;100621.78;;;12.94;63.75
46534;BME280;32260;52.008;4.752;2023-03-22T08:25:28;100629.81;;;12.92;64.14
46534;BME280;32260;52.008;4.752;2023-03-22T08:27:56;100629.06;;;12.89;64.14
46534;BME280;32260;52.008;4.752;2023-03-22T08:30:22;100625.00;;;12.77;63.93
46534;BME280;32260;52.008;4.752;2023-03-22T08:32:48;100628.88;;;12.67;64.04
46534;BME280;32260;52.008;4.752;2023-03-22T08:35:14;100631.78;;;12.59;65.20
46534;BME280;32260;52.008;4.752;2023-03-22T08:37:41;100641.50;;;12.60;65.90
46534;BME280;32260;52.008;4.752;2023-03-22T08:40:08;100638.25;;;12.50;66.04
46534;BME280;32260;52.008;4.752;2023-03-22T08:42:35;100630.91;;;12.58;66.33
46534;BME280;32260;52.008;4.752;2023-03-22T08:45:01;100640.78;;;12.55;67.46
46534;BME280;32260;52.008;4.752;2023-03-22T08:47:27;100623.47;;;12.41;67.59
46534;BME280;32260;52.008;4.752;2023-03-22T08:49:54;100622.78;;;12.35;68.40
46534;BME280;32260;52.008;4.752;2023-03-22T08:52:20;100626.16;;;12.40;67.96
46534;BME280;32260;52.008;4.752;2023-03-22T08:54:46;100624.63;;;12.33;68.80
46534;BME280;32260;52.008;4.752;2023-03-22T08:57:12;100630.47;;;12.44;69.50
46534;BME280;32260;52.008;4.752;2023-03-22T08:59:39;100626.63;;;12.24;69.98
46534;BME280;32260;52.008;4.752;2023-03-22T09:02:05;100612.44;;;12.25;70.32
46534;BME280;32260;52.008;4.752;2023-03-22T09:04:32;100615.81;;;12.30;69.99
46534;BME280;32260;52.008;4.752;2023-03-22T09:06:58;100617.91;;;12.21;70.77
46534;BME280;32260;52.008;4.752;2023-03-22T09:09:24;100612.63;;;12.19;70.75
46534;BME280;32260;52.008;4.752;2023-03-22T09:11:50;100628.75;;;12.13;72.19
46534;BME280;32260;52.008;4.752;2023-03-22T09:14:16;100620.41;;;12.25;70.81
46534;BME280;32260;52.008;4.752;2023-03-22T09:16:42;100610.84;;;12.20;71.75
46534;BME280;32260;52.008;4.752;2023-03-22T09:19:09;100621.50;;;12.18;71.88
46534;BME280;32260;52.008;4.752;2023-03-22T09:21:35;100628.28;;;11.98;71.39
46534;BME280;32260;52.008;4.752;2023-03-22T09:24:01;100618.13;;;12.13;71.49
46534;BME280;32260;52.008;4.752;2023-03-22T09:26:27;100616.19;;;12.18;71.42
46534;BME280;32260;52.008;4.752;2023-03-22T09:28:53;100616.38;;;12.12;71.43
46534;BME280;32260;52.008;4.752;2023-03-22T09:31:19;100628.25;;;12.00;72.01
46534;BME280;32260;52.008;4.752;2023-03-22T09:33:46;100611.44;;;12.00;72.25
46534;BME280;32260;52.008;4.752;2023-03-22T09:36:12;100612.34;;;12.00;71.77
46534;BME280;32260;52.008;4.752;2023-03-22T09:38:39;100611.00;;;12.15;71.85
46534;BME280;32260;52.008;4.752;2023-03-22T09:41:11;100608.22;;;12.18;72.09
46534;BME280;32260;52.008;4.752;2023-03-22T09:43:46;100612.44;;;12.25;72.31
46534;BME280;32260;52.008;4.752;2023-03-22T09:46:17;100620.41;;;12.25;72.23
46534;BME280;32260;52.008;4.752;2023-03-22T09:48:46;100609.69;;;12.28;72.65
46534;BME280;32260;52.008;4.752;2023-03-22T09:51:28;100608.59;;;12.36;71.47
46534;BME280;32260;52.008;4.752;2023-03-22T09:53:55;100604.53;;;12.24;71.81
46534;BME280;32260;52.008;4.752;2023-03-22T09:56:24;100612.63;;;12.19;71.85
46534;BME280;32260;52.008;4.752;2023-03-22T10:01:54;100619.78;;;12.17;71.96
46534;BME280;32260;52.008;4.752;2023-03-22T10:05:48;100614.38;;;12.20;72.54
46534;BME280;32260;52.008;4.752;2023-03-22T10:10:14;100628.75;;;12.13;72.66
46534;BME280;32260;52.008;4.752;2023-03-22T10:12:49;100634.91;;;12.13;72.08
46534;BME280;32260;52.008;4.752;2023-03-22T10:15:29;100621.03;;;12.05;72.29
46534;BME280;32260;52.008;4.752;2023-03-22T10:17:57;100608.78;;;12.00;73.10
46534;BME280;32260;52.008;4.752;2023-03-22T10:20:47;100630.56;;;12.11;72.83
46534;BME280;32260;52.008;4.752;2023-03-22T10:23:17;100629.97;;;12.01;73.33
46534;BME280;32260;52.008;4.752;2023-03-22T10:25:45;100624.72;;;12.00;73.09
46534;BME280;32260;52.008;4.752;2023-03-22T10:28:17;100610.69;;;11.94;73.04
46534;BME280;32260;52.008;4.752;2023-03-22T10:30:48;100623.81;;;12.01;73.09
46534;BME280;32260;52.008;4.752;2023-03-22T10:36:11;100605.69;;;12.15;72.97
46534;BME280;32260;52.008;4.752;2023-03-22T10:38:44;100593.41;;;12.11;73.34
46534;BME280;32260;52.008;4.752;2023-03-22T10:41:13;100590.56;;;12.17;72.79
46534;BME280;32260;52.008;4.752;2023-03-22T10:43:41;100590.75;;;12.11;73.72
46534;BME280;32260;52.008;4.752;2023-03-22T10:46:15;100582.31;;;12.26;72.76
46534;BME280;32260;52.008;4.752;2023-03-22T10:48:44;100576.75;;;12.34;72.80
46534;BME280;32260;52.008;4.752;2023-03-22T10:51:21;100582.22;;;12.29;72.79
46534;BME280;32260;52.008;4.752;2023-03-22T10:53:53;100594.38;;;12.37;72.11
46534;BME280;32260;52.008;4.752;2023-03-22T10:56:20;100582.84;;;12.38;72.45
46534;BME280;32260;52.008;4.752;2023-03-22T10:58:48;100587.13;;;12.42;72.62
46534;BME280;32260;52.008;4.752;2023-03-22T11:01:25;100586.75;;;12.54;72.33
46534;BME280;32260;52.008;4.752;2023-03-22T11:03:56;100574.94;;;12.63;72.43
46534;BME280;32260;52.008;4.752;2023-03-22T11:06:26;100579.19;;;12.69;72.08
46534;BME280;32260;52.008;4.752;2023-03-22T11:09:00;100575.38;;;12.77;71.67
46534;BME280;32260;52.008;4.752;2023-03-22T11:11:28;100589.03;;;12.93;70.57
46534;BME280;32260;52.008;4.752;2023-03-22T11:16:43;100589.88;;;12.94;70.00
46534;BME280;32260;52.008;4.752;2023-03-22T11:19:31;100586.59;;;12.86;70.70
46534;BME280;32260;52.008;4.752;2023-03-22T11:21:59;100602.53;;;12.86;69.51
46534;BME280;32260;52.008;4.752;2023-03-22T11:24:27;100608.44;;;12.95;69.56
46534;BME280;32260;52.008;4.752;2023-03-22T11:27:05;100600.72;;;12.88;69.35
46534;BME280;32260;52.008;4.752;2023-03-22T11:29:43;100616.00;;;12.81;68.83
46534;BME280;32260;52.008;4.752;2023-03-22T11:32:30;100618.50;;;12.86;69.07
46534;BME280;32260;52.008;4.752;2023-03-22T11:35:15;100629.59;;;12.72;68.72
46534;BME280;32260;52.008;4.752;2023-03-22T11:37:51;100638.09;;;12.83;69.13
46534;BME280;32260;52.008;4.752;2023-03-22T11:40:23;100636.41;;;12.81;69.14
46534;BME280;32260;52.008;4.752;2023-03-22T11:42:55;100630.09;;;12.85;69.51
46534;BME280;32260;52.008;4.752;2023-03-22T11:45:30;100632.63;;;12.88;68.85
46534;BME280;32260;52.008;4.752;2023-03-22T11:48:04;100610.69;;;12.81;69.39
46534;BME280;32260;52.008;4.752;2023-03-22T11:50:35;100634.63;;;12.81;69.45
46534;BME280;32260;52.008;4.752;2023-03-22T11:53:03;100629.50;;;12.75;69.03
46534;BME280;32260;52.008;4.752;2023-03-22T11:55:33;100619.59;;;12.80;69.37
46534;BME280;32260;52.008;4.752;2023-03-22T11:58:02;100617.78;;;12.81;69.14
46534;BME280;32260;52.008;4.752;2023-03-22T12:00:30;100628.47;;;12.79;69.58
46534;BME280;32260;52.008;4.752;2023-03-22T12:03:04;100622.84;;;12.88;69.27
46534;BME280;32260;52.008;4.752;2023-03-22T12:05:33;100619.47;;;12.83;69.00
46534;BME280;32260;52.008;4.752;2023-03-22T12:08:12;100623.16;;;12.79;69.20
46534;BME280;32260;52.008;4.752;2023-03-22T12:10:44;100617.38;;;12.93;69.21
46534;BME280;32260;52.008;4.752;2023-03-22T12:16:23;100617.31;;;12.94;68.67
46534;BME280;32260;52.008;4.752;2023-03-22T12:19:46;100620.81;;;12.97;69.33
46534;BME280;32260;52.008;4.752;2023-03-22T12:21:58;100615.41;;;13.00;69.31
46534;BME280;32260;52.008;4.752;2023-03-22T12:24:28;100618.22;;;12.95;69.18
46534;BME280;32260;52.008;4.752;2023-03-22T12:27:03;100632.22;;;13.00;69.12
46534;BME280;32260;52.008;4.752;2023-03-22T12:29:35;100613.53;;;13.02;69.25
46534;BME280;32260;52.008;4.752;2023-03-22T12:32:07;100615.13;;;12.81;69.23
46534;BME280;32260;52.008;4.752;2023-03-22T12:34:40;100601.28;;;12.98;69.19
46534;BME280;32260;52.008;4.752;2023-03-22T12:37:10;100597.09;;;13.16;69.15
46534;BME280;32260;52.008;4.752;2023-03-22T12:39:49;100600.56;;;12.92;69.08
46534;BME280;32260;52.008;4.752;2023-03-22T12:42:25;100598.91;;;13.15;68.86
46534;BME280;32260;52.008;4.752;2023-03-22T12:44:58;100587.63;;;13.08;68.64
46534;BME280;32260;52.008;4.752;2023-03-22T12:47:33;100593.84;;;13.07;68.98
46534;BME280;32260;52.008;4.752;2023-03-22T12:52:52;100594.50;;;13.14;68.47
46534;BME280;32260;52.008;4.752;2023-03-22T12:55:25;100599.31;;;13.30;68.36
46534;BME280;32260;52.008;4.752;2023-03-22T12:57:54;100611.44;;;13.11;68.15
46534;BME280;32260;52.008;4.752;2023-03-22T13:00:26;100592.13;;;13.32;67.98
46534;BME280;32260;52.008;4.752;2023-03-22T13:02:59;100605.16;;;13.41;67.79
46534;BME280;32260;52.008;4.752;2023-03-22T13:05:28;100601.97;;;13.30;68.32
46534;BME280;32260;52.008;4.752;2023-03-22T13:08:00;100607.06;;;13.36;67.94
46534;BME280;32260;52.008;4.752;2023-03-22T13:19:34;100600.47;;;13.48;67.92
46534;BME280;32260;52.008;4.752;2023-03-22T13:22:25;100608.28;;;13.52;68.02
46534;BME280;32260;52.008;4.752;2023-03-22T13:38:41;100586.25;;;13.72;67.37
46534;BME280;32260;52.008;4.752;2023-03-22T13:41:48;100584.97;;;13.83;67.41
46534;BME280;32260;52.008;4.752;2023-03-22T13:44:28;100588.31;;;13.64;67.26
46534;BME280;32260;52.008;4.752;2023-03-22T13:47:06;100595.28;;;13.68;67.56
46534;BME280;32260;52.008;4.752;2023-03-22T13:52:26;100581.75;;;13.74;67.72
46534;BME280;32260;52.008;4.752;2023-03-22T13:54:56;100600.44;;;13.73;67.99
46534;BME280;32260;52.008;4.752;2023-03-22T13:57:44;100574.47;;;13.80;67.66
46534;BME280;32260;52.008;4.752;2023-03-22T14:00:36;100581.38;;;13.84;67.59
46534;BME280;32260;52.008;4.752;2023-03-22T14:03:10;100574.47;;;13.80;67.62
46534;BME280;32260;52.008;4.752;2023-03-22T14:05:38;100569.06;;;13.81;67.41
46534;BME280;32260;52.008;4.752;2023-03-22T14:08:19;100571.72;;;13.81;67.53
46534;BME280;32260;52.008;4.752;2023-03-22T14:10:54;100557.88;;;13.95;67.57
46534;BME280;32260;52.008;4.752;2023-03-22T14:13:40;100554.81;;;14.06;67.76
46534;BME280;32260;52.008;4.752;2023-03-22T14:16:14;100547.97;;;13.99;67.51
46534;BME280;32260;52.008;4.752;2023-03-22T14:18:42;100556.53;;;14.07;67.33
46534;BME280;32260;52.008;4.752;2023-03-22T14:21:21;100553.00;;;14.06;67.67